sensor_id;sensor_type;location;lat;lon;timestamp;P1;durP1;ratioP1;P2;durP2;ratioP2
63534;SDS011;55128;50.230;18.944;2022-09-02T00:03:01;5.20;;;2.60;;
63534;SDS011;55128;50.230;18.944;2022-09-02T00:08:04;4.97;;;2.28;;
63534;SDS011;55128;50.230;18.944;2022-09-02T00:13:06;3.92;;;2.47;;
63534;SDS011;55128;50.230;18.944;2022-09-02T00:18:08;2.88;;;1.85;;
63534;SDS011;55128;50.230;18.944;2022-09-02T00:23:11;3.25;;;2.03;;
63534;SDS011;55128;50.230;18.944;2022-09-02T00:28:13;5.60;;;2.17;;
63534;SDS011;55128;50.230;18.944;2022-09-02T00:33:15;5.15;;;2.40;;
63534;SDS011;55128;50.230;18.944;2022-09-02T00:38:16;4.85;;;2.40;;
63534;SDS011;55128;50.230;18.944;2022-09-02T00:43:24;3.83;;;2.10;;
63534;SDS011;55128;50.230;18.944;2022-09-02T00:48:39;3.40;;;2.53;;
63534;SDS011;55128;50.230;18.944;2022-09-02T00:53:45;6.35;;;2.42;;
63534;SDS011;55128;50.230;18.944;2022-09-02T00:58:47;4.00;;;2.15;;
63534;SDS011;55128;50.230;18.944;2022-09-02T01:03:50;4.10;;;2.20;;
63534;SDS011;55128;50.230;18.944;2022-09-02T01:08:55;4.43;;;2.42;;
63534;SDS011;55128;50.230;18.944;2022-09-02T01:14:00;5.53;;;2.25;;
63534;SDS011;55128;50.230;18.944;2022-09-02T01:19:03;4.47;;;2.65;;
63534;SDS011;55128;50.230;18.944;2022-09-02T01:24:09;4.97;;;2.25;;
63534;SDS011;55128;50.230;18.944;2022-09-02T01:29:10;4.53;;;2.30;;
63534;SDS011;55128;50.230;18.944;2022-09-02T01:34:11;3.85;;;2.40;;
63534;SDS011;55128;50.230;18.944;2022-09-02T01:39:11;3.45;;;2.05;;
63534;SDS011;55128;50.230;18.944;2022-09-02T01:44:12;4.35;;;2.50;;
63534;SDS011;55128;50.230;18.944;2022-09-02T01:49:15;3.50;;;1.83;;
63534;SDS011;55128;50.230;18.944;2022-09-02T01:54:15;4.75;;;2.00;;
63534;SDS011;55128;50.230;18.944;2022-09-02T01:59:16;4.45;;;2.17;;
63534;SDS011;55128;50.230;18.944;2022-09-02T02:04:17;3.55;;;2.10;;
63534;SDS011;55128;50.230;18.944;2022-09-02T02:09:18;3.63;;;2.22;;
63534;SDS011;55128;50.230;18.944;2022-09-02T02:14:18;4.63;;;2.20;;
63534;SDS011;55128;50.230;18.944;2022-09-02T02:19:19;3.92;;;2.50;;
63534;SDS011;55128;50.230;18.944;2022-09-02T02:24:20;3.97;;;1.95;;
63534;SDS011;55128;50.230;18.944;2022-09-02T02:29:21;4.60;;;2.25;;
63534;SDS011;55128;50.230;18.944;2022-09-02T02:34:22;5.80;;;2.40;;
63534;SDS011;55128;50.230;18.944;2022-09-02T02:39:22;4.70;;;2.70;;
63534;SDS011;55128;50.230;18.944;2022-09-02T02:44:23;3.25;;;2.25;;
63534;SDS011;55128;50.230;18.944;2022-09-02T02:49:24;4.07;;;2.50;;
63534;SDS011;55128;50.230;18.944;2022-09-02T02:54:26;4.57;;;2.42;;
63534;SDS011;55128;50.230;18.944;2022-09-02T02:59:26;3.42;;;2.33;;
63534;SDS011;55128;50.230;18.944;2022-09-02T03:04:28;3.85;;;2.38;;
63534;SDS011;55128;50.230;18.944;2022-09-02T03:09:29;4.80;;;2.40;;
63534;SDS011;55128;50.230;18.944;2022-09-02T03:14:30;5.50;;;2.67;;
63534;SDS011;55128;50.230;18.944;2022-09-02T03:19:31;5.50;;;2.33;;
63534;SDS011;55128;50.230;18.944;2022-09-02T03:24:32;4.80;;;2.95;;
63534;SDS011;55128;50.230;18.944;2022-09-02T03:29:33;6.50;;;3.80;;
63534;SDS011;55128;50.230;18.944;2022-09-02T03:34:34;6.82;;;3.70;;
63534;SDS011;55128;50.230;18.944;2022-09-02T03:39:36;5.13;;;3.15;;
63534;SDS011;55128;50.230;18.944;2022-09-02T03:44:37;5.15;;;2.97;;
63534;SDS011;55128;50.230;18.944;2022-09-02T03:49:39;4.32;;;2.83;;
63534;SDS011;55128;50.230;18.944;2022-09-02T03:54:40;5.15;;;2.78;;
63534;SDS011;55128;50.230;18.944;2022-09-02T03:59:40;4.45;;;2.90;;
63534;SDS011;55128;50.230;18.944;2022-09-02T04:04:41;4.93;;;3.00;;
63534;SDS011;55128;50.230;18.944;2022-09-02T04:09:41;5.22;;;3.10;;
63534;SDS011;55128;50.230;18.944;2022-09-02T04:14:42;4.00;;;2.70;;
63534;SDS011;55128;50.230;18.944;2022-09-02T04:19:42;4.30;;;2.92;;
63534;SDS011;55128;50.230;18.944;2022-09-02T04:24:43;3.42;;;2.78;;
63534;SDS011;55128;50.230;18.944;2022-09-02T04:29:44;8.10;;;2.67;;
63534;SDS011;55128;50.230;18.944;2022-09-02T04:34:44;5.78;;;2.65;;
63534;SDS011;55128;50.230;18.944;2022-09-02T04:39:45;3.67;;;2.63;;
63534;SDS011;55128;50.230;18.944;2022-09-02T04:44:45;4.10;;;2.65;;
63534;SDS011;55128;50.230;18.944;2022-09-02T04:49:46;3.97;;;2.50;;
63534;SDS011;55128;50.230;18.944;2022-09-02T04:54:46;4.35;;;2.80;;
63534;SDS011;55128;50.230;18.944;2022-09-02T04:59:47;4.97;;;2.85;;
63534;SDS011;55128;50.230;18.944;2022-09-02T05:04:48;5.80;;;3.95;;
63534;SDS011;55128;50.230;18.944;2022-09-02T05:09:49;4.47;;;2.60;;
63534;SDS011;55128;50.230;18.944;2022-09-02T05:14:56;4.47;;;2.50;;
63534;SDS011;55128;50.230;18.944;2022-09-02T05:19:59;6.23;;;2.80;;
63534;SDS011;55128;50.230;18.944;2022-09-02T05:24:59;8.57;;;3.45;;
63534;SDS011;55128;50.230;18.944;2022-09-02T05:30:00;4.70;;;2.80;;
63534;SDS011;55128;50.230;18.944;2022-09-02T05:35:02;4.25;;;3.00;;
63534;SDS011;55128;50.230;18.944;2022-09-02T05:40:03;4.78;;;2.80;;
63534;SDS011;55128;50.230;18.944;2022-09-02T05:45:05;5.65;;;2.58;;
63534;SDS011;55128;50.230;18.944;2022-09-02T05:50:06;6.82;;;2.70;;
63534;SDS011;55128;50.230;18.944;2022-09-02T05:55:07;3.75;;;2.40;;
63534;SDS011;55128;50.230;18.944;2022-09-02T06:00:08;5.28;;;2.60;;
63534;SDS011;55128;50.230;18.944;2022-09-02T06:05:09;6.57;;;3.15;;
63534;SDS011;55128;50.230;18.944;2022-09-02T06:10:11;5.15;;;2.30;;
63534;SDS011;55128;50.230;18.944;2022-09-02T06:15:12;7.60;;;3.28;;
63534;SDS011;55128;50.230;18.944;2022-09-02T06:20:13;6.38;;;2.50;;
63534;SDS011;55128;50.230;18.944;2022-09-02T06:25:14;6.60;;;2.08;;
63534;SDS011;55128;50.230;18.944;2022-09-02T06:30:16;4.40;;;2.00;;
63534;SDS011;55128;50.230;18.944;2022-09-02T06:35:16;3.85;;;1.80;;
63534;SDS011;55128;50.230;18.944;2022-09-02T06:40:17;7.03;;;3.08;;
63534;SDS011;55128;50.230;18.944;2022-09-02T06:45:19;5.28;;;2.00;;
63534;SDS011;55128;50.230;18.944;2022-09-02T06:50:20;4.57;;;1.87;;
63534;SDS011;55128;50.230;18.944;2022-09-02T06:55:21;4.63;;;1.70;;
63534;SDS011;55128;50.230;18.944;2022-09-02T07:00:22;2.17;;;1.42;;
63534;SDS011;55128;50.230;18.944;2022-09-02T07:05:22;6.50;;;2.30;;
63534;SDS011;55128;50.230;18.944;2022-09-02T07:10:23;3.55;;;1.40;;
63534;SDS011;55128;50.230;18.944;2022-09-02T07:15:23;4.43;;;1.80;;
63534;SDS011;55128;50.230;18.944;2022-09-02T07:20:24;8.27;;;2.05;;
63534;SDS011;55128;50.230;18.944;2022-09-02T07:25:25;4.97;;;1.67;;
63534;SDS011;55128;50.230;18.944;2022-09-02T07:30:26;5.07;;;1.92;;
63534;SDS011;55128;50.230;18.944;2022-09-02T07:35:27;5.10;;;2.10;;
63534;SDS011;55128;50.230;18.944;2022-09-02T07:40:28;5.10;;;1.90;;
63534;SDS011;55128;50.230;18.944;2022-09-02T07:45:29;4.70;;;1.90;;
63534;SDS011;55128;50.230;18.944;2022-09-02T07:50:31;6.85;;;2.33;;
63534;SDS011;55128;50.230;18.944;2022-09-02T07:55:33;3.83;;;2.07;;
63534;SDS011;55128;50.230;18.944;2022-09-02T08:00:35;5.10;;;2.47;;
63534;SDS011;55128;50.230;18.944;2022-09-02T08:05:37;3.80;;;1.70;;
63534;SDS011;55128;50.230;18.944;2022-09-02T08:10:39;5.32;;;1.90;;
63534;SDS011;55128;50.230;18.944;2022-09-02T08:20:41;4.10;;;1.70;;
63534;SDS011;55128;50.230;18.944;2022-09-02T08:25:42;6.03;;;1.70;;
63534;SDS011;55128;50.230;18.944;2022-09-02T08:30:44;2.95;;;1.52;;
63534;SDS011;55128;50.230;18.944;2022-09-02T08:35:45;3.60;;;1.40;;
63534;SDS011;55128;50.230;18.944;2022-09-02T08:40:47;3.60;;;1.10;;
63534;SDS011;55128;50.230;18.944;2022-09-02T08:45:50;3.97;;;1.13;;
63534;SDS011;55128;50.230;18.944;2022-09-02T08:50:54;2.58;;;1.00;;
63534;SDS011;55128;50.230;18.944;2022-09-02T08:56:02;3.55;;;0.90;;
63534;SDS011;55128;50.230;18.944;2022-09-02T09:06:32;1.90;;;0.80;;
63534;SDS011;55128;50.230;18.944;2022-09-02T09:27:30;0.93;;;0.50;;
63534;SDS011;55128;50.230;18.944;2022-09-02T09:32:32;3.30;;;0.68;;
63534;SDS011;55128;50.230;18.944;2022-09-02T09:37:37;1.23;;;0.50;;
63534;SDS011;55128;50.230;18.944;2022-09-02T09:42:39;4.38;;;0.80;;
63534;SDS011;55128;50.230;18.944;2022-09-02T09:47:40;2.88;;;0.45;;
63534;SDS011;55128;50.230;18.944;2022-09-02T09:52:41;1.75;;;0.40;;
63534;SDS011;55128;50.230;18.944;2022-09-02T09:57:43;1.65;;;0.70;;
63534;SDS011;55128;50.230;18.944;2022-09-02T10:02:49;1.50;;;0.43;;
63534;SDS011;55128;50.230;18.944;2022-09-02T10:08:03;1.63;;;0.40;;
63534;SDS011;55128;50.230;18.944;2022-09-02T10:13:25;3.95;;;0.73;;
63534;SDS011;55128;50.230;18.944;2022-09-02T10:18:44;1.58;;;0.50;;
63534;SDS011;55128;50.230;18.944;2022-09-02T10:24:00;1.40;;;0.50;;
63534;SDS011;55128;50.230;18.944;2022-09-02T10:40:15;2.42;;;0.50;;
63534;SDS011;55128;50.230;18.944;2022-09-02T10:56:17;3.20;;;0.70;;
63534;SDS011;55128;50.230;18.944;2022-09-02T11:01:23;1.38;;;0.52;;
63534;SDS011;55128;50.230;18.944;2022-09-02T11:06:29;3.70;;;0.73;;
63534;SDS011;55128;50.230;18.944;2022-09-02T11:11:38;1.80;;;0.70;;
63534;SDS011;55128;50.230;18.944;2022-09-02T11:16:51;0.93;;;0.45;;
63534;SDS011;55128;50.230;18.944;2022-09-02T11:27:36;2.47;;;0.73;;
63534;SDS011;55128;50.230;18.944;2022-09-02T11:33:01;1.85;;;0.70;;
63534;SDS011;55128;50.230;18.944;2022-09-02T11:43:43;5.15;;;0.80;;
63534;SDS011;55128;50.230;18.944;2022-09-02T11:54:13;1.58;;;0.50;;
63534;SDS011;55128;50.230;18.944;2022-09-02T11:59:21;0.93;;;0.60;;
63534;SDS011;55128;50.230;18.944;2022-09-02T12:04:43;3.58;;;0.68;;
63534;SDS011;55128;50.230;18.944;2022-09-02T12:19:49;1.55;;;0.47;;
63534;SDS011;55128;50.230;18.944;2022-09-02T12:25:00;1.33;;;0.55;;
63534;SDS011;55128;50.230;18.944;2022-09-02T12:30:11;3.15;;;0.63;;
63534;SDS011;55128;50.230;18.944;2022-09-02T12:35:13;1.08;;;0.45;;
63534;SDS011;55128;50.230;18.944;2022-09-02T12:57:11;1.45;;;0.52;;
63534;SDS011;55128;50.230;18.944;2022-09-02T13:18:49;3.85;;;0.68;;
63534;SDS011;55128;50.230;18.944;2022-09-02T13:24:26;1.57;;;0.80;;
63534;SDS011;55128;50.230;18.944;2022-09-02T13:35:01;1.83;;;0.40;;
63534;SDS011;55128;50.230;18.944;2022-09-02T13:40:18;2.58;;;0.70;;
63534;SDS011;55128;50.230;18.944;2022-09-02T13:45:20;3.97;;;0.70;;
63534;SDS011;55128;50.230;18.944;2022-09-02T13:50:26;1.70;;;0.55;;
63534;SDS011;55128;50.230;18.944;2022-09-02T13:55:29;1.70;;;0.77;;
63534;SDS011;55128;50.230;18.944;2022-09-02T14:00:32;2.85;;;0.80;;
63534;SDS011;55128;50.230;18.944;2022-09-02T14:05:35;2.75;;;0.77;;
63534;SDS011;55128;50.230;18.944;2022-09-02T14:10:40;2.60;;;0.70;;
63534;SDS011;55128;50.230;18.944;2022-09-02T14:15:41;1.92;;;0.55;;
63534;SDS011;55128;50.230;18.944;2022-09-02T14:20:53;1.35;;;0.70;;
63534;SDS011;55128;50.230;18.944;2022-09-02T14:26:00;2.05;;;0.60;;
63534;SDS011;55128;50.230;18.944;2022-09-02T14:31:06;1.50;;;0.80;;
63534;SDS011;55128;50.230;18.944;2022-09-02T14:36:11;3.22;;;0.85;;
63534;SDS011;55128;50.230;18.944;2022-09-02T14:41:31;9.40;;;0.93;;
63534;SDS011;55128;50.230;18.944;2022-09-02T14:46:36;1.98;;;0.70;;
63534;SDS011;55128;50.230;18.944;2022-09-02T14:51:44;2.15;;;0.63;;
63534;SDS011;55128;50.230;18.944;2022-09-02T14:56:50;1.92;;;0.75;;
63534;SDS011;55128;50.230;18.944;2022-09-02T15:01:52;2.95;;;0.70;;
63534;SDS011;55128;50.230;18.944;2022-09-02T15:06:55;1.85;;;0.73;;
63534;SDS011;55128;50.230;18.944;2022-09-02T15:11:56;2.95;;;0.70;;
63534;SDS011;55128;50.230;18.944;2022-09-02T15:16:57;2.42;;;0.90;;
63534;SDS011;55128;50.230;18.944;2022-09-02T15:21:58;1.23;;;0.70;;
63534;SDS011;55128;50.230;18.944;2022-09-02T15:26:59;1.77;;;0.90;;
63534;SDS011;55128;50.230;18.944;2022-09-02T15:31:59;2.42;;;0.90;;
63534;SDS011;55128;50.230;18.944;2022-09-02T15:37:02;4.70;;;1.00;;
63534;SDS011;55128;50.230;18.944;2022-09-02T15:42:02;1.90;;;0.88;;
63534;SDS011;55128;50.230;18.944;2022-09-02T15:47:03;1.77;;;1.02;;
63534;SDS011;55128;50.230;18.944;2022-09-02T15:52:04;2.38;;;0.90;;
63534;SDS011;55128;50.230;18.944;2022-09-02T15:57:05;1.67;;;0.77;;
63534;SDS011;55128;50.230;18.944;2022-09-02T16:02:05;2.30;;;1.10;;
63534;SDS011;55128;50.230;18.944;2022-09-02T16:07:06;3.45;;;1.10;;
63534;SDS011;55128;50.230;18.944;2022-09-02T16:12:07;2.13;;;1.40;;
63534;SDS011;55128;50.230;18.944;2022-09-02T16:17:08;2.72;;;1.38;;
63534;SDS011;55128;50.230;18.944;2022-09-02T16:22:09;1.80;;;1.08;;
63534;SDS011;55128;50.230;18.944;2022-09-02T16:27:10;1.98;;;1.27;;
63534;SDS011;55128;50.230;18.944;2022-09-02T16:32:10;3.58;;;1.17;;
63534;SDS011;55128;50.230;18.944;2022-09-02T16:37:11;3.08;;;1.27;;
63534;SDS011;55128;50.230;18.944;2022-09-02T16:42:11;4.25;;;1.60;;
63534;SDS011;55128;50.230;18.944;2022-09-02T16:47:12;3.10;;;1.23;;
63534;SDS011;55128;50.230;18.944;2022-09-02T16:52:14;3.83;;;1.67;;
63534;SDS011;55128;50.230;18.944;2022-09-02T16:57:14;3.38;;;1.73;;
63534;SDS011;55128;50.230;18.944;2022-09-02T17:02:15;4.30;;;1.80;;
63534;SDS011;55128;50.230;18.944;2022-09-02T17:07:16;3.83;;;1.80;;
63534;SDS011;55128;50.230;18.944;2022-09-02T17:12:16;3.42;;;2.30;;
63534;SDS011;55128;50.230;18.944;2022-09-02T17:17:17;4.82;;;1.80;;
63534;SDS011;55128;50.230;18.944;2022-09-02T17:22:18;2.92;;;1.27;;
63534;SDS011;55128;50.230;18.944;2022-09-02T17:27:19;3.08;;;1.40;;
63534;SDS011;55128;50.230;18.944;2022-09-02T17:32:19;2.08;;;1.30;;
63534;SDS011;55128;50.230;18.944;2022-09-02T17:37:20;3.03;;;1.45;;
63534;SDS011;55128;50.230;18.944;2022-09-02T17:42:21;5.90;;;3.70;;
63534;SDS011;55128;50.230;18.944;2022-09-02T17:47:21;3.33;;;1.88;;
63534;SDS011;55128;50.230;18.944;2022-09-02T17:52:23;3.90;;;1.88;;
63534;SDS011;55128;50.230;18.944;2022-09-02T18:13:13;4.60;;;2.30;;
63534;SDS011;55128;50.230;18.944;2022-09-02T18:18:18;4.53;;;2.40;;
63534;SDS011;55128;50.230;18.944;2022-09-02T18:39:14;5.57;;;2.40;;
63534;SDS011;55128;50.230;18.944;2022-09-02T18:44:34;3.50;;;1.90;;
63534;SDS011;55128;50.230;18.944;2022-09-02T18:49:42;5.45;;;2.50;;
63534;SDS011;55128;50.230;18.944;2022-09-02T18:54:49;4.75;;;2.70;;
63534;SDS011;55128;50.230;18.944;2022-09-02T19:05:07;5.95;;;2.35;;
63534;SDS011;55128;50.230;18.944;2022-09-02T19:10:11;4.10;;;2.40;;
63534;SDS011;55128;50.230;18.944;2022-09-02T19:15:13;3.85;;;2.20;;
63534;SDS011;55128;50.230;18.944;2022-09-02T19:20:14;3.92;;;2.10;;
63534;SDS011;55128;50.230;18.944;2022-09-02T19:25:18;3.72;;;2.40;;
63534;SDS011;55128;50.230;18.944;2022-09-02T19:30:22;5.82;;;2.97;;
63534;SDS011;55128;50.230;18.944;2022-09-02T19:35:25;5.25;;;3.17;;
63534;SDS011;55128;50.230;18.944;2022-09-02T19:40:32;6.20;;;2.30;;
63534;SDS011;55128;50.230;18.944;2022-09-02T19:45:35;3.72;;;2.40;;
63534;SDS011;55128;50.230;18.944;2022-09-02T19:50:37;5.28;;;2.28;;
63534;SDS011;55128;50.230;18.944;2022-09-02T19:55:41;6.57;;;5.10;;
63534;SDS011;55128;50.230;18.944;2022-09-02T20:00:41;33.22;;;15.00;;
63534;SDS011;55128;50.230;18.944;2022-09-02T20:05:42;5.97;;;4.18;;
63534;SDS011;55128;50.230;18.944;2022-09-02T20:10:42;13.93;;;6.75;;
63534;SDS011;55128;50.230;18.944;2022-09-02T20:15:52;8.55;;;3.63;;
63534;SDS011;55128;50.230;18.944;2022-09-02T20:20:54;5.85;;;3.40;;
63534;SDS011;55128;50.230;18.944;2022-09-02T20:36:25;13.52;;;6.70;;
63534;SDS011;55128;50.230;18.944;2022-09-02T20:52:14;26.33;;;11.40;;
63534;SDS011;55128;50.230;18.944;2022-09-02T21:02:54;5.60;;;4.07;;
63534;SDS011;55128;50.230;18.944;2022-09-02T21:08:08;5.45;;;4.10;;
63534;SDS011;55128;50.230;18.944;2022-09-02T21:18:44;8.70;;;4.45;;
63534;SDS011;55128;50.230;18.944;2022-09-02T21:24:09;8.25;;;4.60;;
63534;SDS011;55128;50.230;18.944;2022-09-02T21:40:19;14.77;;;11.55;;
63534;SDS011;55128;50.230;18.944;2022-09-02T21:50:57;12.93;;;11.63;;
63534;SDS011;55128;50.230;18.944;2022-09-02T22:06:51;7.00;;;3.83;;
63534;SDS011;55128;50.230;18.944;2022-09-02T22:12:27;7.47;;;2.67;;
63534;SDS011;55128;50.230;18.944;2022-09-02T22:22:36;9.85;;;3.08;;
63534;SDS011;55128;50.230;18.944;2022-09-02T22:27:42;5.55;;;2.67;;
63534;SDS011;55128;50.230;18.944;2022-09-02T22:32:47;5.80;;;2.63;;
63534;SDS011;55128;50.230;18.944;2022-09-02T22:44:06;3.78;;;2.40;;
63534;SDS011;55128;50.230;18.944;2022-09-02T22:49:13;4.25;;;1.98;;
63534;SDS011;55128;50.230;18.944;2022-09-02T22:54:36;3.95;;;1.95;;
63534;SDS011;55128;50.230;18.944;2022-09-02T23:04:58;3.92;;;2.05;;
63534;SDS011;55128;50.230;18.944;2022-09-02T23:10:13;4.05;;;1.70;;
63534;SDS011;55128;50.230;18.944;2022-09-02T23:15:24;5.35;;;2.15;;
63534;SDS011;55128;50.230;18.944;2022-09-02T23:20:40;4.68;;;1.90;;
63534;SDS011;55128;50.230;18.944;2022-09-02T23:42:12;6.10;;;2.30;;
63534;SDS011;55128;50.230;18.944;2022-09-02T23:58:09;5.28;;;1.98;;
